createdAt,value
2022-12-23T00:00:22.865Z,95.08
2022-12-23T00:03:26.378Z,95.50
2022-12-23T00:06:30.054Z,95.14
2022-12-23T00:09:32.865Z,95.59
2022-12-23T00:12:54.917Z,95.26
2022-12-23T00:16:05.734Z,95.85
2022-12-23T00:19:09.428Z,95.65
2022-12-23T00:22:12.269Z,96.11
2022-12-23T00:25:16.145Z,96.38
2022-12-23T00:28:23.615Z,96.20
2022-12-23T00:31:26.527Z,96.15
2022-12-23T00:34:29.364Z,96.64
2022-12-23T00:37:32.739Z,96.36
2022-12-23T00:40:53.199Z,97.22
2022-12-23T00:43:57.914Z,97.59
2022-12-23T00:47:01.030Z,98.18
2022-12-23T00:50:02.988Z,98.04
2022-12-23T00:53:06.272Z,97.92
2022-12-23T00:56:09.051Z,98.13
2022-12-23T00:59:13.205Z,97.85
2022-12-23T01:02:33.857Z,97.85
2022-12-23T01:05:37.821Z,97.96
2022-12-23T01:08:41.200Z,97.69
2022-12-23T01:11:44.308Z,97.57
2022-12-23T01:14:49.948Z,97.90
2022-12-23T01:17:52.763Z,98.03
2022-12-23T01:20:55.640Z,98.50
2022-12-23T01:23:58.637Z,98.42
2022-12-23T01:27:02.299Z,98.79
2022-12-23T01:30:07.961Z,98.95
2022-12-23T01:33:10.936Z,98.58
2022-12-23T01:36:13.912Z,99.08
2022-12-23T01:39:17.027Z,99.07
2022-12-23T01:42:39.494Z,98.67
2022-12-23T01:45:43.933Z,99.01
2022-12-23T01:48:52.403Z,98.97
2022-12-23T01:51:55.416Z,98.79
2022-12-23T01:54:58.893Z,99.50
2022-12-23T01:58:08.259Z,99.48
2022-12-23T02:01:31.167Z,99.79
2022-12-23T02:04:34.507Z,100.00
2022-12-23T02:07:55.346Z,100.00
2022-12-23T02:11:25.028Z,100.00
2022-12-23T02:14:58.813Z,100.00
2022-12-23T02:18:25.202Z,100.00
2022-12-23T02:21:47.616Z,100.00
2022-12-23T02:25:19.267Z,100.00
2022-12-23T02:29:00.116Z,100.00
2022-12-23T02:32:12.103Z,100.00
2022-12-23T02:35:22.252Z,100.00
2022-12-23T02:38:30.563Z,100.00
2022-12-23T02:41:40.648Z,100.00
2022-12-23T02:44:49.664Z,100.00
2022-12-23T02:47:59.558Z,100.00
2022-12-23T02:51:03.229Z,100.00
2022-12-23T02:54:12.601Z,100.00
2022-12-23T02:57:20.669Z,100.00
2022-12-23T03:00:23.884Z,100.00
2022-12-23T03:03:28.914Z,100.00
2022-12-23T03:06:38.697Z,100.00
2022-12-23T03:09:52.224Z,100.00
2022-12-23T03:13:04.180Z,100.00
2022-12-23T03:16:17.037Z,100.00
2022-12-23T03:19:27.261Z,100.00
2022-12-23T03:22:36.648Z,100.00
2022-12-23T03:25:47.774Z,100.00
2022-12-23T03:28:55.467Z,100.00
2022-12-23T03:32:01.097Z,100.00
2022-12-23T03:35:09.003Z,100.00
2022-12-23T03:38:16.859Z,100.00
2022-12-23T03:41:25.659Z,100.00
2022-12-23T03:44:33.551Z,100.00
2022-12-23T03:47:44.658Z,100.00
2022-12-23T03:50:53.552Z,100.00
2022-12-23T03:54:03.209Z,100.00
2022-12-23T03:57:08.925Z,100.00
2022-12-23T04:00:13.074Z,100.00
2022-12-23T04:03:23.454Z,100.00
2022-12-23T04:06:31.681Z,100.00
2022-12-23T04:09:36.398Z,100.00
2022-12-23T04:12:41.098Z,100.00
2022-12-23T04:15:44.677Z,100.00
2022-12-23T04:18:47.682Z,100.00
2022-12-23T04:21:52.019Z,100.00
2022-12-23T04:24:54.893Z,100.00
2022-12-23T04:27:58.200Z,100.00
2022-12-23T04:31:01.061Z,100.00
2022-12-23T04:34:04.142Z,100.00
2022-12-23T04:37:08.488Z,100.00
2022-12-23T04:40:11.661Z,100.00
2022-12-23T04:43:14.733Z,100.00
2022-12-23T04:46:17.668Z,100.00
2022-12-23T04:49:20.529Z,100.00
2022-12-23T04:52:24.674Z,100.00
2022-12-23T04:55:27.704Z,100.00
2022-12-23T04:58:30.729Z,100.00
2022-12-23T05:01:34.048Z,100.00
2022-12-23T05:04:37.391Z,100.00
2022-12-23T05:07:42.285Z,100.00
2022-12-23T05:10:45.987Z,100.00
2022-12-23T05:13:48.783Z,100.00
2022-12-23T05:16:51.735Z,100.00
2022-12-23T05:19:54.714Z,100.00
2022-12-23T05:22:58.981Z,100.00
2022-12-23T05:26:02.062Z,100.00
2022-12-23T05:29:06.127Z,100.00
2022-12-23T05:32:09.446Z,100.00
2022-12-23T05:35:12.445Z,99.68
2022-12-23T05:38:16.800Z,99.13
2022-12-23T05:41:20.155Z,98.90
2022-12-23T05:44:23.177Z,99.51
2022-12-23T05:47:28.887Z,99.18
2022-12-23T05:50:31.773Z,99.22
2022-12-23T05:53:36.616Z,99.16
2022-12-23T05:56:39.449Z,99.86
2022-12-23T05:59:42.181Z,100.00
2022-12-23T06:02:49.952Z,99.94
2022-12-23T06:05:56.242Z,99.44
2022-12-23T06:09:01.069Z,98.65
2022-12-23T06:12:04.058Z,99.42
2022-12-23T06:15:08.390Z,99.39
2022-12-23T06:18:11.209Z,99.15
2022-12-23T06:21:14.063Z,99.59
2022-12-23T06:24:18.276Z,99.98
2022-12-23T06:27:21.168Z,100.00
2022-12-23T06:30:24.378Z,100.00
2022-12-23T06:33:27.118Z,100.00
2022-12-23T06:36:30.370Z,100.00
2022-12-23T06:39:34.815Z,100.00
2022-12-23T06:42:39.771Z,100.00
2022-12-23T06:45:47.073Z,100.00
2022-12-23T06:48:49.949Z,100.00
2022-12-23T06:51:53.965Z,100.00
2022-12-23T06:54:58.856Z,100.00
2022-12-23T06:58:01.647Z,100.00
2022-12-23T07:01:04.739Z,100.00
2022-12-23T07:04:08.001Z,100.00
2022-12-23T07:07:11.048Z,100.00
2022-12-23T07:10:15.419Z,100.00
2022-12-23T07:13:18.269Z,100.00
2022-12-23T07:16:21.449Z,100.00
2022-12-23T07:19:24.292Z,100.00
2022-12-23T07:22:27.167Z,100.00
2022-12-23T07:25:32.016Z,100.00
2022-12-23T07:28:35.401Z,100.00
2022-12-23T07:31:41.111Z,100.00
2022-12-23T07:34:44.194Z,100.00
2022-12-23T07:37:47.081Z,100.00
2022-12-23T07:40:51.358Z,100.00
2022-12-23T07:43:54.731Z,100.00
2022-12-23T07:46:57.764Z,100.00
2022-12-23T07:50:00.662Z,100.00
2022-12-23T07:53:03.508Z,100.00
2022-12-23T07:56:09.434Z,100.00
2022-12-23T07:59:12.701Z,100.00
2022-12-23T08:02:15.667Z,100.00
2022-12-23T08:05:19.538Z,100.00
2022-12-23T08:08:22.374Z,100.00
2022-12-23T08:11:27.304Z,100.00
2022-12-23T08:14:30.050Z,100.00
2022-12-23T08:17:34.044Z,100.00
2022-12-23T08:20:37.278Z,100.00
2022-12-23T08:23:40.423Z,100.00
2022-12-23T08:26:44.660Z,100.00
2022-12-23T08:29:47.491Z,100.00
2022-12-23T08:32:51.008Z,100.00
2022-12-23T08:35:55.757Z,100.00
2022-12-23T08:39:01.631Z,100.00
2022-12-23T08:42:06.310Z,100.00
2022-12-23T08:45:09.938Z,100.00
2022-12-23T08:48:13.804Z,100.00
2022-12-23T08:51:18.793Z,100.00
2022-12-23T08:54:22.173Z,100.00
2022-12-23T08:57:26.597Z,100.00
2022-12-23T09:00:31.449Z,100.00
2022-12-23T09:03:35.627Z,100.00
2022-12-23T09:06:42.145Z,100.00
2022-12-23T09:09:45.356Z,100.00
2022-12-23T09:12:51.588Z,100.00
2022-12-23T09:15:55.083Z,100.00
2022-12-23T09:18:58.020Z,100.00
2022-12-23T09:22:01.313Z,100.00
2022-12-23T09:25:05.444Z,100.00
2022-12-23T09:28:10.666Z,100.00
2022-12-23T09:31:14.766Z,100.00
2022-12-23T09:34:17.624Z,100.00
2022-12-23T09:37:20.698Z,100.00
2022-12-23T09:40:24.123Z,100.00
2022-12-23T09:43:37.203Z,100.00
2022-12-23T09:46:49.042Z,100.00
2022-12-23T09:49:57.716Z,100.00
2022-12-23T09:53:03.536Z,100.00
2022-12-23T09:56:16.176Z,100.00
2022-12-23T09:59:37.648Z,100.00
2022-12-23T10:02:55.483Z,100.00
2022-12-23T10:06:03.407Z,100.00
2022-12-23T10:09:08.574Z,100.00
2022-12-23T10:12:28.219Z,100.00
2022-12-23T10:15:38.349Z,100.00
2022-12-23T10:18:53.314Z,100.00
2022-12-23T10:22:01.995Z,100.00
2022-12-23T10:25:11.792Z,100.00
2022-12-23T10:28:14.703Z,100.00
2022-12-23T10:31:40.456Z,100.00
2022-12-23T10:34:53.559Z,100.00
2022-12-23T10:38:02.336Z,100.00
2022-12-23T10:41:15.273Z,100.00
2022-12-23T10:44:30.335Z,100.00
2022-12-23T10:47:47.090Z,100.00
2022-12-23T10:50:58.140Z,100.00
2022-12-23T10:54:05.985Z,100.00
2022-12-23T10:57:10.349Z,100.00
2022-12-23T11:00:19.525Z,100.00
2022-12-23T11:03:30.076Z,100.00
2022-12-23T11:06:37.768Z,100.00
2022-12-23T11:09:43.597Z,100.00
2022-12-23T11:12:49.491Z,100.00
2022-12-23T11:15:53.405Z,100.00
2022-12-23T11:19:01.918Z,100.00
2022-12-23T11:22:04.930Z,100.00
2022-12-23T11:25:27.615Z,100.00
2022-12-23T11:28:32.386Z,100.00
2022-12-23T11:31:36.736Z,100.00
2022-12-23T11:34:47.030Z,100.00
2022-12-23T11:37:51.023Z,100.00
2022-12-23T11:40:53.903Z,100.00
2022-12-23T11:43:59.794Z,100.00
2022-12-23T11:47:20.644Z,100.00
2022-12-23T11:50:33.191Z,100.00
2022-12-23T11:53:36.724Z,100.00
2022-12-23T11:56:42.058Z,100.00
2022-12-23T11:59:50.165Z,100.00
2022-12-23T12:03:19.312Z,100.00
2022-12-23T12:06:24.544Z,100.00
2022-12-23T12:09:29.428Z,100.00
2022-12-23T12:12:33.658Z,100.00
2022-12-23T12:15:45.005Z,100.00
2022-12-23T12:18:55.510Z,100.00
2022-12-23T12:22:04.139Z,100.00
2022-12-23T12:25:19.662Z,100.00
2022-12-23T12:28:26.281Z,100.00
2022-12-23T12:31:33.751Z,100.00
2022-12-23T12:34:44.984Z,100.00
2022-12-23T12:37:56.236Z,100.00
2022-12-23T12:41:02.547Z,100.00
2022-12-23T12:44:28.043Z,100.00
2022-12-23T12:47:54.177Z,100.00
2022-12-23T12:51:05.565Z,100.00
2022-12-23T12:54:20.252Z,100.00
2022-12-23T12:57:24.934Z,100.00
2022-12-23T13:00:28.904Z,100.00
2022-12-23T13:03:57.380Z,100.00
2022-12-23T13:07:07.830Z,100.00
2022-12-23T13:10:20.221Z,100.00
2022-12-23T13:13:33.769Z,100.00
2022-12-23T13:16:46.618Z,100.00
2022-12-23T13:19:58.498Z,100.00
2022-12-23T13:23:34.335Z,100.00
2022-12-23T13:26:38.924Z,100.00
2022-12-23T13:30:04.768Z,100.00
2022-12-23T13:33:20.893Z,100.00
2022-12-23T13:36:38.505Z,100.00
2022-12-23T13:39:51.548Z,100.00
2022-12-23T13:42:59.057Z,100.00
2022-12-23T13:46:09.885Z,100.00
2022-12-23T13:49:22.113Z,100.00
2022-12-23T13:52:36.079Z,100.00
2022-12-23T13:55:52.830Z,100.00
2022-12-23T13:58:58.193Z,100.00
2022-12-23T14:02:01.351Z,100.00
2022-12-23T14:05:13.139Z,100.00
2022-12-23T14:08:26.586Z,100.00
2022-12-23T14:11:32.034Z,100.00
2022-12-23T14:14:36.614Z,100.00
2022-12-23T14:17:46.515Z,100.00
2022-12-23T14:20:54.936Z,100.00
2022-12-23T14:24:15.761Z,100.00
2022-12-23T14:27:35.355Z,100.00
2022-12-23T14:30:45.002Z,100.00
2022-12-23T14:33:49.843Z,100.00
2022-12-23T14:37:32.928Z,100.00
2022-12-23T14:41:05.850Z,100.00
2022-12-23T14:44:21.215Z,100.00
2022-12-23T14:47:35.015Z,100.00
2022-12-23T14:50:42.934Z,100.00
2022-12-23T14:54:13.741Z,100.00
2022-12-23T14:57:20.236Z,100.00
2022-12-23T15:00:23.121Z,100.00
2022-12-23T15:03:31.917Z,100.00
2022-12-23T15:06:39.052Z,100.00
2022-12-23T15:09:53.430Z,100.00
2022-12-23T15:13:02.865Z,100.00
2022-12-23T15:16:06.520Z,100.00
2022-12-23T15:19:20.881Z,100.00
2022-12-23T15:22:30.359Z,100.00
2022-12-23T15:25:40.303Z,100.00
2022-12-23T15:28:44.307Z,100.00
2022-12-23T15:31:49.867Z,100.00
2022-12-23T15:34:59.635Z,100.00
2022-12-23T15:38:03.754Z,100.00
2022-12-23T15:41:14.698Z,100.00
2022-12-23T15:44:22.481Z,100.00
2022-12-23T15:47:29.088Z,100.00
2022-12-23T15:50:40.344Z,100.00
2022-12-23T15:53:48.191Z,100.00
2022-12-23T15:56:54.728Z,100.00
2022-12-23T15:59:59.821Z,100.00
2022-12-23T16:03:05.583Z,100.00
2022-12-23T16:06:20.459Z,100.00
2022-12-23T16:09:36.074Z,100.00
2022-12-23T16:12:41.515Z,100.00
2022-12-23T16:15:44.735Z,100.00
2022-12-23T16:18:48.040Z,100.00
2022-12-23T16:21:52.445Z,100.00
2022-12-23T16:25:02.747Z,100.00
2022-12-23T16:28:08.952Z,100.00
2022-12-23T16:31:13.533Z,100.00
2022-12-23T16:34:16.711Z,100.00
2022-12-23T16:37:20.845Z,100.00
2022-12-23T16:40:24.409Z,100.00
2022-12-23T16:43:27.683Z,100.00
2022-12-23T16:46:35.157Z,100.00
2022-12-23T16:49:39.129Z,100.00
2022-12-23T16:52:43.707Z,100.00
2022-12-23T16:55:53.862Z,100.00
2022-12-23T16:58:59.777Z,100.00
2022-12-23T17:02:03.914Z,100.00
2022-12-23T17:05:07.859Z,99.89
2022-12-23T17:08:12.207Z,100.00
2022-12-23T17:11:16.884Z,100.00
2022-12-23T17:14:23.052Z,100.00
2022-12-23T17:17:28.572Z,100.00
2022-12-23T17:20:32.780Z,100.00
2022-12-23T17:23:36.889Z,100.00
2022-12-23T17:26:39.843Z,100.00
2022-12-23T17:29:42.833Z,100.00
2022-12-23T17:32:53.731Z,100.00
2022-12-23T17:35:56.600Z,100.00
2022-12-23T17:39:00.771Z,100.00
2022-12-23T17:42:04.661Z,100.00
2022-12-23T17:45:18.520Z,100.00
2022-12-23T17:48:24.240Z,100.00
2022-12-23T17:51:30.892Z,100.00
2022-12-23T17:54:35.206Z,100.00
2022-12-23T17:57:38.202Z,100.00
2022-12-23T18:00:41.139Z,100.00
2022-12-23T18:03:44.008Z,100.00
2022-12-23T18:06:47.101Z,100.00
2022-12-23T18:09:51.893Z,100.00
2022-12-23T18:12:56.805Z,100.00
2022-12-23T18:15:59.988Z,100.00
2022-12-23T18:19:02.698Z,100.00
2022-12-23T18:22:05.425Z,100.00
2022-12-23T18:25:15.585Z,100.00
2022-12-23T18:28:18.980Z,100.00
2022-12-23T18:31:24.282Z,100.00
2022-12-23T18:34:27.192Z,100.00
2022-12-23T18:37:29.978Z,100.00
2022-12-23T18:40:34.259Z,100.00
2022-12-23T18:43:37.193Z,99.80
2022-12-23T18:46:40.129Z,97.82
2022-12-23T18:49:43.387Z,98.81
2022-12-23T18:52:46.832Z,98.76
2022-12-23T18:55:51.101Z,99.21
2022-12-23T18:58:54.364Z,99.25
2022-12-23T19:01:57.710Z,99.81
2022-12-23T19:05:00.666Z,100.00
2022-12-23T19:08:03.426Z,100.00
2022-12-23T19:11:12.468Z,100.00
2022-12-23T19:14:15.658Z,100.00
2022-12-23T19:17:18.462Z,100.00
2022-12-23T19:20:22.077Z,100.00
2022-12-23T19:23:26.402Z,100.00
2022-12-23T19:26:30.765Z,100.00
2022-12-23T19:29:33.542Z,100.00
2022-12-23T19:32:36.566Z,100.00
2022-12-23T19:35:42.035Z,100.00
2022-12-23T19:38:48.031Z,100.00
2022-12-23T19:41:52.495Z,100.00
2022-12-23T19:44:55.348Z,100.00
2022-12-23T19:47:58.182Z,100.00
2022-12-23T19:51:02.716Z,100.00
2022-12-23T19:54:05.807Z,100.00
2022-12-23T19:57:10.339Z,100.00
2022-12-23T20:00:15.800Z,100.00
2022-12-23T20:03:19.725Z,100.00
2022-12-23T20:06:26.051Z,99.77
2022-12-23T20:09:28.899Z,99.00
2022-12-23T20:12:33.133Z,98.05
2022-12-23T20:15:36.266Z,96.94
2022-12-23T20:18:39.480Z,96.36
2022-12-23T20:21:42.668Z,94.74
2022-12-23T20:24:45.893Z,94.20
2022-12-23T20:27:50.335Z,92.92
2022-12-23T20:31:00.507Z,93.39
2022-12-23T20:34:03.569Z,91.77
2022-12-23T20:37:06.942Z,91.23
2022-12-23T20:40:12.930Z,90.54
2022-12-23T20:43:17.403Z,91.13
2022-12-23T20:46:22.484Z,91.53
2022-12-23T20:49:25.278Z,91.68
2022-12-23T20:52:28.115Z,91.54
2022-12-23T20:55:32.493Z,91.11
2022-12-23T20:58:51.701Z,91.48
2022-12-23T21:01:54.819Z,91.48
2022-12-23T21:04:57.815Z,91.39
2022-12-23T21:08:01.790Z,92.04
2022-12-23T21:11:05.423Z,91.32
2022-12-23T21:14:09.509Z,90.33
2022-12-23T21:17:12.300Z,90.72
2022-12-23T21:20:15.930Z,89.96
2022-12-23T21:23:19.440Z,89.41
2022-12-23T21:26:24.220Z,88.62
2022-12-23T21:29:28.671Z,88.25
2022-12-23T21:32:32.099Z,88.78
2022-12-23T21:35:36.013Z,88.04
2022-12-23T21:38:40.929Z,87.21
2022-12-23T21:41:44.036Z,86.56
2022-12-23T21:44:48.612Z,86.74
2022-12-23T21:47:51.475Z,86.23
2022-12-23T21:50:56.604Z,86.65
2022-12-23T21:54:00.640Z,86.91
2022-12-23T21:57:03.365Z,86.76
2022-12-23T22:00:09.048Z,86.52
2022-12-23T22:03:12.117Z,85.63
2022-12-23T22:06:17.252Z,85.80
2022-12-23T22:09:20.799Z,84.23
2022-12-23T22:12:23.495Z,84.51
2022-12-23T22:15:27.725Z,84.71
2022-12-23T22:18:31.687Z,84.33
2022-12-23T22:21:35.338Z,84.63
2022-12-23T22:24:38.077Z,85.00
2022-12-23T22:27:40.811Z,84.63
2022-12-23T22:30:47.667Z,84.60
2022-12-23T22:33:50.619Z,85.06
2022-12-23T22:36:53.423Z,84.57
2022-12-23T22:39:56.304Z,84.53
2022-12-23T22:42:59.189Z,84.75
2022-12-23T22:46:04.124Z,85.17
2022-12-23T22:49:07.334Z,85.26
2022-12-23T22:52:10.260Z,85.08
2022-12-23T22:55:13.184Z,85.14
2022-12-23T22:58:15.908Z,84.81
2022-12-23T23:01:23.574Z,84.99
2022-12-23T23:04:26.759Z,85.06
2022-12-23T23:07:29.873Z,85.12
2022-12-23T23:10:33.813Z,84.69
2022-12-23T23:13:36.924Z,84.76
2022-12-23T23:16:41.142Z,85.26
2022-12-23T23:19:44.248Z,84.97
2022-12-23T23:22:47.488Z,83.66
2022-12-23T23:25:50.412Z,83.49
2022-12-23T23:28:53.615Z,84.10
2022-12-23T23:31:57.775Z,84.63
2022-12-23T23:35:06.896Z,83.87
2022-12-23T23:38:13.408Z,84.69
2022-12-23T23:41:20.628Z,84.07
2022-12-23T23:44:26.018Z,83.95
2022-12-23T23:47:34.434Z,84.25
2022-12-23T23:50:37.273Z,84.95
2022-12-23T23:53:40.350Z,84.67
2022-12-23T23:56:43.285Z,84.80
2022-12-23T23:59:46.065Z,84.10
